sensor_id;sensor_type;location;lat;lon;timestamp;P1;durP1;ratioP1;P2;durP2;ratioP2
51248;SDS011;39642;47.556;18.728;2023-01-15T00:00:50;16.75;;;8.35;;
51248;SDS011;39642;47.556;18.728;2023-01-15T00:03:17;15.82;;;7.62;;
51248;SDS011;39642;47.556;18.728;2023-01-15T00:05:43;16.85;;;8.13;;
51248;SDS011;39642;47.556;18.728;2023-01-15T00:08:09;16.37;;;7.80;;
51248;SDS011;39642;47.556;18.728;2023-01-15T00:10:35;17.17;;;7.57;;
51248;SDS011;39642;47.556;18.728;2023-01-15T00:13:00;16.60;;;7.75;;
51248;SDS011;39642;47.556;18.728;2023-01-15T00:15:26;17.40;;;8.20;;
51248;SDS011;39642;47.556;18.728;2023-01-15T00:17:52;16.65;;;8.07;;
51248;SDS011;39642;47.556;18.728;2023-01-15T00:20:18;15.43;;;7.78;;
51248;SDS011;39642;47.556;18.728;2023-01-15T00:22:44;14.95;;;7.15;;
51248;SDS011;39642;47.556;18.728;2023-01-15T00:25:10;16.05;;;7.97;;
51248;SDS011;39642;47.556;18.728;2023-01-15T00:27:54;16.50;;;8.02;;
51248;SDS011;39642;47.556;18.728;2023-01-15T00:30:20;15.65;;;7.65;;
51248;SDS011;39642;47.556;18.728;2023-01-15T00:32:47;15.75;;;7.78;;
51248;SDS011;39642;47.556;18.728;2023-01-15T00:35:14;15.55;;;7.05;;
51248;SDS011;39642;47.556;18.728;2023-01-15T00:37:45;16.98;;;7.85;;
51248;SDS011;39642;47.556;18.728;2023-01-15T00:40:11;15.90;;;7.60;;
51248;SDS011;39642;47.556;18.728;2023-01-15T00:42:38;17.20;;;8.45;;
51248;SDS011;39642;47.556;18.728;2023-01-15T00:45:05;16.92;;;7.47;;
51248;SDS011;39642;47.556;18.728;2023-01-15T00:47:38;15.52;;;7.85;;
51248;SDS011;39642;47.556;18.728;2023-01-15T00:50:07;14.70;;;7.22;;
51248;SDS011;39642;47.556;18.728;2023-01-15T00:52:35;16.25;;;7.55;;
51248;SDS011;39642;47.556;18.728;2023-01-15T00:55:01;15.93;;;7.18;;
51248;SDS011;39642;47.556;18.728;2023-01-15T00:57:28;14.98;;;7.18;;
51248;SDS011;39642;47.556;18.728;2023-01-15T00:59:53;16.52;;;7.65;;
51248;SDS011;39642;47.556;18.728;2023-01-15T01:02:19;15.35;;;7.28;;
51248;SDS011;39642;47.556;18.728;2023-01-15T01:04:45;15.20;;;7.35;;
51248;SDS011;39642;47.556;18.728;2023-01-15T01:07:11;16.12;;;7.57;;
51248;SDS011;39642;47.556;18.728;2023-01-15T01:09:38;15.75;;;7.97;;
51248;SDS011;39642;47.556;18.728;2023-01-15T01:12:04;15.10;;;7.65;;
51248;SDS011;39642;47.556;18.728;2023-01-15T01:14:31;16.35;;;7.70;;
51248;SDS011;39642;47.556;18.728;2023-01-15T01:16:57;15.05;;;7.47;;
51248;SDS011;39642;47.556;18.728;2023-01-15T01:19:23;15.90;;;7.32;;
51248;SDS011;39642;47.556;18.728;2023-01-15T01:21:50;14.90;;;7.25;;
51248;SDS011;39642;47.556;18.728;2023-01-15T01:24:18;15.75;;;7.10;;
51248;SDS011;39642;47.556;18.728;2023-01-15T01:26:46;15.13;;;7.25;;
51248;SDS011;39642;47.556;18.728;2023-01-15T01:29:13;15.82;;;7.80;;
51248;SDS011;39642;47.556;18.728;2023-01-15T01:31:41;16.30;;;7.12;;
51248;SDS011;39642;47.556;18.728;2023-01-15T01:34:07;14.13;;;6.75;;
51248;SDS011;39642;47.556;18.728;2023-01-15T01:36:34;14.77;;;7.07;;
51248;SDS011;39642;47.556;18.728;2023-01-15T01:39:02;15.00;;;6.87;;
51248;SDS011;39642;47.556;18.728;2023-01-15T01:41:29;13.45;;;6.65;;
51248;SDS011;39642;47.556;18.728;2023-01-15T01:44:00;15.10;;;6.90;;
51248;SDS011;39642;47.556;18.728;2023-01-15T01:46:32;15.00;;;7.50;;
51248;SDS011;39642;47.556;18.728;2023-01-15T01:49:01;16.00;;;7.55;;
51248;SDS011;39642;47.556;18.728;2023-01-15T01:51:34;15.02;;;7.25;;
51248;SDS011;39642;47.556;18.728;2023-01-15T01:54:15;14.87;;;7.50;;
51248;SDS011;39642;47.556;18.728;2023-01-15T01:56:44;14.77;;;7.00;;
51248;SDS011;39642;47.556;18.728;2023-01-15T01:59:10;15.15;;;7.10;;
51248;SDS011;39642;47.556;18.728;2023-01-15T02:01:36;15.73;;;7.00;;
51248;SDS011;39642;47.556;18.728;2023-01-15T02:04:05;15.25;;;7.43;;
51248;SDS011;39642;47.556;18.728;2023-01-15T02:06:32;15.48;;;7.05;;
51248;SDS011;39642;47.556;18.728;2023-01-15T02:08:58;15.85;;;7.15;;
51248;SDS011;39642;47.556;18.728;2023-01-15T02:11:24;15.65;;;7.18;;
51248;SDS011;39642;47.556;18.728;2023-01-15T02:27:11;14.27;;;6.65;;
51248;SDS011;39642;47.556;18.728;2023-01-15T02:30:02;14.65;;;7.20;;
51248;SDS011;39642;47.556;18.728;2023-01-15T02:32:33;15.45;;;7.43;;
51248;SDS011;39642;47.556;18.728;2023-01-15T02:35:22;16.65;;;7.47;;
51248;SDS011;39642;47.556;18.728;2023-01-15T02:37:56;14.23;;;7.00;;
51248;SDS011;39642;47.556;18.728;2023-01-15T02:40:25;15.25;;;7.18;;
51248;SDS011;39642;47.556;18.728;2023-01-15T02:42:52;14.20;;;6.72;;
51248;SDS011;39642;47.556;18.728;2023-01-15T02:45:24;15.18;;;7.18;;
51248;SDS011;39642;47.556;18.728;2023-01-15T02:47:53;14.90;;;6.70;;
51248;SDS011;39642;47.556;18.728;2023-01-15T02:50:24;15.52;;;6.65;;
51248;SDS011;39642;47.556;18.728;2023-01-15T02:52:55;14.57;;;6.68;;
51248;SDS011;39642;47.556;18.728;2023-01-15T02:55:27;16.00;;;7.05;;
51248;SDS011;39642;47.556;18.728;2023-01-15T02:57:59;13.82;;;6.40;;
51248;SDS011;39642;47.556;18.728;2023-01-15T03:00:29;13.82;;;6.45;;
51248;SDS011;39642;47.556;18.728;2023-01-15T03:03:00;13.85;;;6.97;;
51248;SDS011;39642;47.556;18.728;2023-01-15T03:05:35;14.87;;;6.75;;
51248;SDS011;39642;47.556;18.728;2023-01-15T03:08:06;14.38;;;6.47;;
51248;SDS011;39642;47.556;18.728;2023-01-15T03:10:38;14.00;;;6.47;;
51248;SDS011;39642;47.556;18.728;2023-01-15T03:13:14;12.45;;;5.90;;
51248;SDS011;39642;47.556;18.728;2023-01-15T03:15:48;13.00;;;6.35;;
51248;SDS011;39642;47.556;18.728;2023-01-15T03:18:46;13.30;;;6.00;;
51248;SDS011;39642;47.556;18.728;2023-01-15T03:24:09;15.43;;;5.95;;
51248;SDS011;39642;47.556;18.728;2023-01-15T03:26:37;14.45;;;6.60;;
51248;SDS011;39642;47.556;18.728;2023-01-15T03:29:03;12.27;;;5.53;;
51248;SDS011;39642;47.556;18.728;2023-01-15T03:31:33;13.55;;;5.90;;
51248;SDS011;39642;47.556;18.728;2023-01-15T03:34:01;13.93;;;6.30;;
51248;SDS011;39642;47.556;18.728;2023-01-15T03:36:27;14.20;;;6.28;;
51248;SDS011;39642;47.556;18.728;2023-01-15T03:38:53;13.00;;;5.78;;
51248;SDS011;39642;47.556;18.728;2023-01-15T03:49:38;13.55;;;6.00;;
51248;SDS011;39642;47.556;18.728;2023-01-15T03:54:45;13.30;;;5.80;;
51248;SDS011;39642;47.556;18.728;2023-01-15T04:00:17;14.50;;;6.45;;
51248;SDS011;39642;47.556;18.728;2023-01-15T04:02:46;12.05;;;5.50;;
51248;SDS011;39642;47.556;18.728;2023-01-15T04:05:14;13.25;;;5.80;;
51248;SDS011;39642;47.556;18.728;2023-01-15T04:07:41;13.27;;;5.80;;
51248;SDS011;39642;47.556;18.728;2023-01-15T04:10:10;11.20;;;5.07;;
51248;SDS011;39642;47.556;18.728;2023-01-15T04:12:36;13.55;;;5.82;;
51248;SDS011;39642;47.556;18.728;2023-01-15T04:15:02;13.05;;;5.70;;
51248;SDS011;39642;47.556;18.728;2023-01-15T04:17:28;12.88;;;5.35;;
51248;SDS011;39642;47.556;18.728;2023-01-15T04:19:54;11.70;;;5.00;;
51248;SDS011;39642;47.556;18.728;2023-01-15T04:22:20;13.02;;;5.68;;
51248;SDS011;39642;47.556;18.728;2023-01-15T04:24:46;12.45;;;4.85;;
51248;SDS011;39642;47.556;18.728;2023-01-15T04:27:12;12.05;;;5.30;;
51248;SDS011;39642;47.556;18.728;2023-01-15T04:29:37;12.82;;;5.40;;
51248;SDS011;39642;47.556;18.728;2023-01-15T04:32:03;12.73;;;5.53;;
51248;SDS011;39642;47.556;18.728;2023-01-15T04:34:29;13.55;;;6.18;;
51248;SDS011;39642;47.556;18.728;2023-01-15T04:36:55;12.07;;;5.35;;
51248;SDS011;39642;47.556;18.728;2023-01-15T04:39:21;11.77;;;5.03;;
51248;SDS011;39642;47.556;18.728;2023-01-15T04:41:48;12.57;;;5.37;;
51248;SDS011;39642;47.556;18.728;2023-01-15T04:44:43;12.98;;;5.68;;
51248;SDS011;39642;47.556;18.728;2023-01-15T04:47:09;12.30;;;5.28;;
51248;SDS011;39642;47.556;18.728;2023-01-15T04:49:34;11.50;;;5.00;;
51248;SDS011;39642;47.556;18.728;2023-01-15T04:52:00;12.37;;;5.15;;
51248;SDS011;39642;47.556;18.728;2023-01-15T04:54:26;12.55;;;5.25;;
51248;SDS011;39642;47.556;18.728;2023-01-15T04:56:53;11.82;;;5.22;;
51248;SDS011;39642;47.556;18.728;2023-01-15T04:59:21;11.45;;;5.25;;
51248;SDS011;39642;47.556;18.728;2023-01-15T05:01:50;11.30;;;5.25;;
51248;SDS011;39642;47.556;18.728;2023-01-15T05:04:17;12.77;;;5.25;;
51248;SDS011;39642;47.556;18.728;2023-01-15T05:06:43;13.90;;;5.80;;
51248;SDS011;39642;47.556;18.728;2023-01-15T05:09:09;12.20;;;5.40;;
51248;SDS011;39642;47.556;18.728;2023-01-15T05:11:35;11.82;;;4.93;;
51248;SDS011;39642;47.556;18.728;2023-01-15T05:14:03;12.20;;;5.20;;
51248;SDS011;39642;47.556;18.728;2023-01-15T05:16:30;13.05;;;5.07;;
51248;SDS011;39642;47.556;18.728;2023-01-15T05:18:57;12.20;;;4.93;;
51248;SDS011;39642;47.556;18.728;2023-01-15T05:21:26;12.35;;;5.37;;
51248;SDS011;39642;47.556;18.728;2023-01-15T05:23:56;11.75;;;4.68;;
51248;SDS011;39642;47.556;18.728;2023-01-15T05:26:25;11.15;;;4.82;;
51248;SDS011;39642;47.556;18.728;2023-01-15T05:28:52;12.73;;;5.60;;
51248;SDS011;39642;47.556;18.728;2023-01-15T05:31:20;12.10;;;5.35;;
51248;SDS011;39642;47.556;18.728;2023-01-15T05:33:46;10.65;;;4.53;;
51248;SDS011;39642;47.556;18.728;2023-01-15T05:36:15;11.80;;;5.47;;
51248;SDS011;39642;47.556;18.728;2023-01-15T05:38:43;13.30;;;5.40;;
51248;SDS011;39642;47.556;18.728;2023-01-15T05:41:10;11.35;;;4.90;;
51248;SDS011;39642;47.556;18.728;2023-01-15T05:44:01;12.55;;;5.20;;
51248;SDS011;39642;47.556;18.728;2023-01-15T05:46:29;11.45;;;5.30;;
51248;SDS011;39642;47.556;18.728;2023-01-15T05:48:59;11.07;;;4.78;;
51248;SDS011;39642;47.556;18.728;2023-01-15T05:51:26;11.05;;;4.80;;
51248;SDS011;39642;47.556;18.728;2023-01-15T05:53:54;11.32;;;4.80;;
51248;SDS011;39642;47.556;18.728;2023-01-15T05:56:21;11.27;;;4.70;;
51248;SDS011;39642;47.556;18.728;2023-01-15T05:58:47;11.93;;;4.65;;
51248;SDS011;39642;47.556;18.728;2023-01-15T06:01:14;11.48;;;5.03;;
51248;SDS011;39642;47.556;18.728;2023-01-15T06:03:39;11.38;;;4.55;;
51248;SDS011;39642;47.556;18.728;2023-01-15T06:06:06;11.23;;;4.60;;
51248;SDS011;39642;47.556;18.728;2023-01-15T06:08:32;11.18;;;4.85;;
51248;SDS011;39642;47.556;18.728;2023-01-15T06:10:58;10.98;;;4.53;;
51248;SDS011;39642;47.556;18.728;2023-01-15T06:13:24;11.15;;;4.68;;
51248;SDS011;39642;47.556;18.728;2023-01-15T06:15:49;11.82;;;4.62;;
51248;SDS011;39642;47.556;18.728;2023-01-15T06:18:15;10.73;;;4.82;;
51248;SDS011;39642;47.556;18.728;2023-01-15T06:20:41;11.93;;;4.82;;
51248;SDS011;39642;47.556;18.728;2023-01-15T06:23:07;12.35;;;4.93;;
51248;SDS011;39642;47.556;18.728;2023-01-15T06:25:34;11.23;;;4.90;;
51248;SDS011;39642;47.556;18.728;2023-01-15T06:28:04;11.05;;;4.80;;
51248;SDS011;39642;47.556;18.728;2023-01-15T06:30:31;10.98;;;4.55;;
51248;SDS011;39642;47.556;18.728;2023-01-15T06:32:58;11.88;;;5.10;;
51248;SDS011;39642;47.556;18.728;2023-01-15T06:35:24;11.52;;;4.70;;
51248;SDS011;39642;47.556;18.728;2023-01-15T06:37:50;12.18;;;4.70;;
51248;SDS011;39642;47.556;18.728;2023-01-15T06:40:17;11.48;;;4.87;;
51248;SDS011;39642;47.556;18.728;2023-01-15T06:42:43;11.07;;;4.40;;
51248;SDS011;39642;47.556;18.728;2023-01-15T06:45:28;10.45;;;4.37;;
51248;SDS011;39642;47.556;18.728;2023-01-15T06:48:20;11.50;;;4.68;;
51248;SDS011;39642;47.556;18.728;2023-01-15T06:50:46;10.45;;;4.60;;
51248;SDS011;39642;47.556;18.728;2023-01-15T06:53:12;11.43;;;4.60;;
51248;SDS011;39642;47.556;18.728;2023-01-15T06:55:38;10.93;;;4.60;;
51248;SDS011;39642;47.556;18.728;2023-01-15T06:58:04;12.07;;;4.60;;
51248;SDS011;39642;47.556;18.728;2023-01-15T07:00:30;10.15;;;4.20;;
51248;SDS011;39642;47.556;18.728;2023-01-15T07:02:58;10.38;;;4.30;;
51248;SDS011;39642;47.556;18.728;2023-01-15T07:05:24;10.48;;;4.22;;
51248;SDS011;39642;47.556;18.728;2023-01-15T07:07:51;10.60;;;4.20;;
51248;SDS011;39642;47.556;18.728;2023-01-15T07:10:16;10.60;;;4.18;;
51248;SDS011;39642;47.556;18.728;2023-01-15T07:12:42;11.27;;;4.62;;
51248;SDS011;39642;47.556;18.728;2023-01-15T07:15:08;11.23;;;4.55;;
51248;SDS011;39642;47.556;18.728;2023-01-15T07:17:35;11.25;;;4.10;;
51248;SDS011;39642;47.556;18.728;2023-01-15T07:20:01;10.85;;;4.15;;
51248;SDS011;39642;47.556;18.728;2023-01-15T07:22:27;10.27;;;4.20;;
51248;SDS011;39642;47.556;18.728;2023-01-15T07:24:53;10.60;;;4.10;;
51248;SDS011;39642;47.556;18.728;2023-01-15T07:27:19;10.52;;;4.18;;
51248;SDS011;39642;47.556;18.728;2023-01-15T07:29:44;10.93;;;4.25;;
51248;SDS011;39642;47.556;18.728;2023-01-15T07:32:10;10.70;;;4.40;;
51248;SDS011;39642;47.556;18.728;2023-01-15T07:34:37;10.68;;;4.25;;
51248;SDS011;39642;47.556;18.728;2023-01-15T07:37:03;11.18;;;4.68;;
51248;SDS011;39642;47.556;18.728;2023-01-15T07:39:29;10.88;;;3.97;;
51248;SDS011;39642;47.556;18.728;2023-01-15T07:41:56;10.95;;;4.50;;
51248;SDS011;39642;47.556;18.728;2023-01-15T07:44:41;10.63;;;4.40;;
51248;SDS011;39642;47.556;18.728;2023-01-15T07:47:25;10.88;;;4.03;;
51248;SDS011;39642;47.556;18.728;2023-01-15T07:50:11;10.63;;;4.22;;
51248;SDS011;39642;47.556;18.728;2023-01-15T07:52:40;11.73;;;4.60;;
51248;SDS011;39642;47.556;18.728;2023-01-15T07:55:05;10.32;;;4.12;;
51248;SDS011;39642;47.556;18.728;2023-01-15T07:57:33;10.13;;;4.03;;
51248;SDS011;39642;47.556;18.728;2023-01-15T07:59:59;10.90;;;4.22;;
51248;SDS011;39642;47.556;18.728;2023-01-15T08:02:25;9.90;;;4.00;;
51248;SDS011;39642;47.556;18.728;2023-01-15T08:04:51;10.90;;;4.40;;
51248;SDS011;39642;47.556;18.728;2023-01-15T08:07:17;10.98;;;4.47;;
51248;SDS011;39642;47.556;18.728;2023-01-15T08:09:43;11.43;;;4.18;;
51248;SDS011;39642;47.556;18.728;2023-01-15T08:12:10;10.68;;;4.50;;
51248;SDS011;39642;47.556;18.728;2023-01-15T08:14:55;11.02;;;4.00;;
51248;SDS011;39642;47.556;18.728;2023-01-15T08:17:40;9.93;;;4.15;;
51248;SDS011;39642;47.556;18.728;2023-01-15T08:20:15;11.38;;;4.43;;
51248;SDS011;39642;47.556;18.728;2023-01-15T08:22:43;10.95;;;4.05;;
51248;SDS011;39642;47.556;18.728;2023-01-15T08:25:09;10.52;;;4.28;;
51248;SDS011;39642;47.556;18.728;2023-01-15T08:27:37;12.32;;;4.50;;
51248;SDS011;39642;47.556;18.728;2023-01-15T08:30:04;11.73;;;4.28;;
51248;SDS011;39642;47.556;18.728;2023-01-15T08:32:31;10.30;;;4.07;;
51248;SDS011;39642;47.556;18.728;2023-01-15T08:34:57;11.57;;;4.57;;
51248;SDS011;39642;47.556;18.728;2023-01-15T08:37:23;11.05;;;4.32;;
51248;SDS011;39642;47.556;18.728;2023-01-15T08:39:49;11.12;;;4.60;;
51248;SDS011;39642;47.556;18.728;2023-01-15T08:42:20;11.43;;;4.45;;
51248;SDS011;39642;47.556;18.728;2023-01-15T08:44:46;10.93;;;4.60;;
51248;SDS011;39642;47.556;18.728;2023-01-15T08:47:13;11.68;;;4.60;;
51248;SDS011;39642;47.556;18.728;2023-01-15T08:49:40;10.98;;;4.30;;
51248;SDS011;39642;47.556;18.728;2023-01-15T08:52:06;11.98;;;4.65;;
51248;SDS011;39642;47.556;18.728;2023-01-15T08:54:32;11.45;;;4.70;;
51248;SDS011;39642;47.556;18.728;2023-01-15T08:56:59;11.23;;;4.53;;
51248;SDS011;39642;47.556;18.728;2023-01-15T08:59:25;11.30;;;4.62;;
51248;SDS011;39642;47.556;18.728;2023-01-15T09:01:52;12.27;;;4.50;;
51248;SDS011;39642;47.556;18.728;2023-01-15T09:04:18;10.88;;;4.57;;
51248;SDS011;39642;47.556;18.728;2023-01-15T09:06:46;10.80;;;4.55;;
51248;SDS011;39642;47.556;18.728;2023-01-15T09:09:13;10.95;;;4.70;;
51248;SDS011;39642;47.556;18.728;2023-01-15T09:11:39;10.80;;;4.50;;
51248;SDS011;39642;47.556;18.728;2023-01-15T09:14:06;11.18;;;4.40;;
51248;SDS011;39642;47.556;18.728;2023-01-15T09:16:33;10.55;;;4.57;;
51248;SDS011;39642;47.556;18.728;2023-01-15T09:18:59;10.95;;;4.68;;
51248;SDS011;39642;47.556;18.728;2023-01-15T09:21:25;11.02;;;4.62;;
51248;SDS011;39642;47.556;18.728;2023-01-15T09:23:51;11.10;;;4.80;;
51248;SDS011;39642;47.556;18.728;2023-01-15T09:26:33;10.70;;;4.25;;
51248;SDS011;39642;47.556;18.728;2023-01-15T09:31:27;11.18;;;4.72;;
51248;SDS011;39642;47.556;18.728;2023-01-15T09:33:53;11.05;;;4.70;;
51248;SDS011;39642;47.556;18.728;2023-01-15T09:36:30;11.25;;;4.90;;
51248;SDS011;39642;47.556;18.728;2023-01-15T09:38:57;11.57;;;4.93;;
51248;SDS011;39642;47.556;18.728;2023-01-15T09:41:25;11.65;;;4.72;;
51248;SDS011;39642;47.556;18.728;2023-01-15T09:47:20;10.95;;;4.40;;
51248;SDS011;39642;47.556;18.728;2023-01-15T09:49:56;12.02;;;4.90;;
51248;SDS011;39642;47.556;18.728;2023-01-15T09:55:29;11.85;;;4.97;;
51248;SDS011;39642;47.556;18.728;2023-01-15T09:57:59;11.73;;;4.78;;
51248;SDS011;39642;47.556;18.728;2023-01-15T10:00:29;11.27;;;4.60;;
51248;SDS011;39642;47.556;18.728;2023-01-15T10:03:06;12.32;;;4.57;;
51248;SDS011;39642;47.556;18.728;2023-01-15T10:08:28;11.85;;;4.53;;
51248;SDS011;39642;47.556;18.728;2023-01-15T10:11:00;11.10;;;4.82;;
51248;SDS011;39642;47.556;18.728;2023-01-15T10:13:40;12.13;;;4.70;;
51248;SDS011;39642;47.556;18.728;2023-01-15T10:16:10;11.25;;;5.00;;
51248;SDS011;39642;47.556;18.728;2023-01-15T10:18:43;12.07;;;4.78;;
51248;SDS011;39642;47.556;18.728;2023-01-15T10:21:33;11.27;;;4.25;;
51248;SDS011;39642;47.556;18.728;2023-01-15T10:31:47;11.30;;;4.87;;
51248;SDS011;39642;47.556;18.728;2023-01-15T10:45:39;11.20;;;4.35;;
51248;SDS011;39642;47.556;18.728;2023-01-15T10:51:05;10.30;;;4.35;;
51248;SDS011;39642;47.556;18.728;2023-01-15T10:53:40;10.65;;;4.47;;
51248;SDS011;39642;47.556;18.728;2023-01-15T10:56:14;11.68;;;4.55;;
51248;SDS011;39642;47.556;18.728;2023-01-15T10:58:47;10.93;;;4.25;;
51248;SDS011;39642;47.556;18.728;2023-01-15T11:01:18;11.83;;;4.27;;
51248;SDS011;39642;47.556;18.728;2023-01-15T11:03:47;10.90;;;4.37;;
51248;SDS011;39642;47.556;18.728;2023-01-15T11:06:15;11.23;;;4.72;;
51248;SDS011;39642;47.556;18.728;2023-01-15T11:08:53;11.80;;;4.40;;
51248;SDS011;39642;47.556;18.728;2023-01-15T11:14:31;11.45;;;4.68;;
51248;SDS011;39642;47.556;18.728;2023-01-15T11:20:30;9.80;;;4.00;;
51248;SDS011;39642;47.556;18.728;2023-01-15T11:23:06;11.03;;;4.60;;
51248;SDS011;39642;47.556;18.728;2023-01-15T11:25:36;11.02;;;4.30;;
51248;SDS011;39642;47.556;18.728;2023-01-15T11:28:09;10.83;;;4.50;;
51248;SDS011;39642;47.556;18.728;2023-01-15T11:30:39;10.65;;;4.72;;
51248;SDS011;39642;47.556;18.728;2023-01-15T11:33:19;11.38;;;4.32;;
51248;SDS011;39642;47.556;18.728;2023-01-15T11:35:51;11.30;;;4.57;;
51248;SDS011;39642;47.556;18.728;2023-01-15T11:38:26;10.93;;;4.37;;
51248;SDS011;39642;47.556;18.728;2023-01-15T11:41:22;11.60;;;4.82;;
51248;SDS011;39642;47.556;18.728;2023-01-15T11:43:56;11.10;;;4.35;;
51248;SDS011;39642;47.556;18.728;2023-01-15T11:46:44;11.02;;;4.40;;
51248;SDS011;39642;47.556;18.728;2023-01-15T11:49:29;12.05;;;4.85;;
51248;SDS011;39642;47.556;18.728;2023-01-15T11:52:21;10.18;;;4.18;;
51248;SDS011;39642;47.556;18.728;2023-01-15T11:54:50;10.52;;;4.40;;
51248;SDS011;39642;47.556;18.728;2023-01-15T11:57:26;11.75;;;4.60;;
51248;SDS011;39642;47.556;18.728;2023-01-15T11:59:56;10.98;;;4.78;;
51248;SDS011;39642;47.556;18.728;2023-01-15T12:02:32;12.35;;;4.95;;
51248;SDS011;39642;47.556;18.728;2023-01-15T12:07:46;12.68;;;5.15;;
51248;SDS011;39642;47.556;18.728;2023-01-15T12:10:21;11.95;;;5.43;;
51248;SDS011;39642;47.556;18.728;2023-01-15T12:15:56;11.57;;;5.28;;
51248;SDS011;39642;47.556;18.728;2023-01-15T12:18:46;14.23;;;5.62;;
51248;SDS011;39642;47.556;18.728;2023-01-15T12:24:01;12.45;;;5.53;;
51248;SDS011;39642;47.556;18.728;2023-01-15T12:27:14;13.07;;;5.78;;
51248;SDS011;39642;47.556;18.728;2023-01-15T12:30:46;12.95;;;6.12;;
51248;SDS011;39642;47.556;18.728;2023-01-15T12:33:19;11.90;;;5.43;;
51248;SDS011;39642;47.556;18.728;2023-01-15T12:35:55;13.40;;;5.93;;
51248;SDS011;39642;47.556;18.728;2023-01-15T12:41:00;14.05;;;6.65;;
51248;SDS011;39642;47.556;18.728;2023-01-15T12:43:34;14.13;;;6.25;;
51248;SDS011;39642;47.556;18.728;2023-01-15T12:46:21;14.30;;;6.15;;
51248;SDS011;39642;47.556;18.728;2023-01-15T12:48:56;13.98;;;6.32;;
51248;SDS011;39642;47.556;18.728;2023-01-15T12:51:41;13.38;;;6.57;;
51248;SDS011;39642;47.556;18.728;2023-01-15T12:54:14;14.73;;;6.55;;
51248;SDS011;39642;47.556;18.728;2023-01-15T12:56:55;15.25;;;7.15;;
51248;SDS011;39642;47.556;18.728;2023-01-15T12:59:28;14.50;;;6.20;;
51248;SDS011;39642;47.556;18.728;2023-01-15T13:07:26;13.65;;;6.72;;
51248;SDS011;39642;47.556;18.728;2023-01-15T13:10:04;13.88;;;6.35;;
51248;SDS011;39642;47.556;18.728;2023-01-15T13:12:43;15.35;;;6.62;;
51248;SDS011;39642;47.556;18.728;2023-01-15T13:15:12;15.23;;;6.47;;
51248;SDS011;39642;47.556;18.728;2023-01-15T13:39:39;14.32;;;7.15;;
51248;SDS011;39642;47.556;18.728;2023-01-15T13:42:15;15.15;;;7.20;;
51248;SDS011;39642;47.556;18.728;2023-01-15T13:44:57;15.35;;;6.87;;
51248;SDS011;39642;47.556;18.728;2023-01-15T13:47:33;14.90;;;7.15;;
51248;SDS011;39642;47.556;18.728;2023-01-15T13:50:05;15.38;;;7.80;;
51248;SDS011;39642;47.556;18.728;2023-01-15T13:52:40;14.30;;;7.30;;
51248;SDS011;39642;47.556;18.728;2023-01-15T13:57:41;16.12;;;8.02;;
51248;SDS011;39642;47.556;18.728;2023-01-15T14:00:24;16.52;;;7.72;;
51248;SDS011;39642;47.556;18.728;2023-01-15T14:02:54;15.75;;;7.97;;
51248;SDS011;39642;47.556;18.728;2023-01-15T14:05:33;15.93;;;7.85;;
51248;SDS011;39642;47.556;18.728;2023-01-15T14:08:01;16.67;;;7.75;;
51248;SDS011;39642;47.556;18.728;2023-01-15T14:10:38;18.62;;;8.05;;
51248;SDS011;39642;47.556;18.728;2023-01-15T14:13:25;17.98;;;8.73;;
51248;SDS011;39642;47.556;18.728;2023-01-15T14:27:27;16.25;;;7.75;;
51248;SDS011;39642;47.556;18.728;2023-01-15T14:33:02;15.75;;;7.70;;
51248;SDS011;39642;47.556;18.728;2023-01-15T14:35:36;16.25;;;8.20;;
51248;SDS011;39642;47.556;18.728;2023-01-15T14:38:12;16.80;;;8.13;;
51248;SDS011;39642;47.556;18.728;2023-01-15T14:43:28;16.55;;;8.23;;
51248;SDS011;39642;47.556;18.728;2023-01-15T14:46:08;16.50;;;8.05;;
51248;SDS011;39642;47.556;18.728;2023-01-15T14:49:01;16.48;;;7.82;;
51248;SDS011;39642;47.556;18.728;2023-01-15T14:51:29;16.83;;;8.25;;
51248;SDS011;39642;47.556;18.728;2023-01-15T14:54:03;16.45;;;7.85;;
51248;SDS011;39642;47.556;18.728;2023-01-15T14:56:43;15.65;;;7.80;;
51248;SDS011;39642;47.556;18.728;2023-01-15T15:01:44;14.68;;;7.53;;
51248;SDS011;39642;47.556;18.728;2023-01-15T15:09:20;16.75;;;7.28;;
51248;SDS011;39642;47.556;18.728;2023-01-15T15:15:49;16.10;;;7.10;;
51248;SDS011;39642;47.556;18.728;2023-01-15T15:26:01;16.10;;;7.43;;
51248;SDS011;39642;47.556;18.728;2023-01-15T15:28:29;15.55;;;7.18;;
51248;SDS011;39642;47.556;18.728;2023-01-15T15:30:55;14.15;;;7.05;;
51248;SDS011;39642;47.556;18.728;2023-01-15T15:33:27;15.98;;;7.85;;
51248;SDS011;39642;47.556;18.728;2023-01-15T15:36:02;16.27;;;7.57;;
51248;SDS011;39642;47.556;18.728;2023-01-15T15:38:28;14.85;;;7.00;;
51248;SDS011;39642;47.556;18.728;2023-01-15T15:40:58;16.05;;;7.45;;
51248;SDS011;39642;47.556;18.728;2023-01-15T15:46:38;14.68;;;7.30;;
51248;SDS011;39642;47.556;18.728;2023-01-15T15:49:39;15.77;;;7.35;;
51248;SDS011;39642;47.556;18.728;2023-01-15T15:52:21;15.07;;;6.50;;
51248;SDS011;39642;47.556;18.728;2023-01-15T15:54:58;13.77;;;6.45;;
51248;SDS011;39642;47.556;18.728;2023-01-15T15:57:28;16.17;;;7.65;;
51248;SDS011;39642;47.556;18.728;2023-01-15T15:59:55;16.70;;;7.50;;
51248;SDS011;39642;47.556;18.728;2023-01-15T16:02:23;14.75;;;6.95;;
51248;SDS011;39642;47.556;18.728;2023-01-15T16:04:51;15.35;;;6.97;;
51248;SDS011;39642;47.556;18.728;2023-01-15T16:09:50;15.55;;;7.28;;
51248;SDS011;39642;47.556;18.728;2023-01-15T16:12:19;15.13;;;6.65;;
51248;SDS011;39642;47.556;18.728;2023-01-15T16:14:45;15.68;;;7.57;;
51248;SDS011;39642;47.556;18.728;2023-01-15T16:17:12;13.45;;;6.20;;
51248;SDS011;39642;47.556;18.728;2023-01-15T16:19:39;15.02;;;6.43;;
51248;SDS011;39642;47.556;18.728;2023-01-15T16:22:07;13.77;;;6.45;;
51248;SDS011;39642;47.556;18.728;2023-01-15T16:24:36;15.10;;;6.97;;
51248;SDS011;39642;47.556;18.728;2023-01-15T16:27:03;15.88;;;7.07;;
51248;SDS011;39642;47.556;18.728;2023-01-15T16:29:33;14.87;;;7.32;;
51248;SDS011;39642;47.556;18.728;2023-01-15T16:32:01;14.55;;;7.20;;
51248;SDS011;39642;47.556;18.728;2023-01-15T16:34:34;15.43;;;7.03;;
51248;SDS011;39642;47.556;18.728;2023-01-15T16:37:00;14.90;;;7.07;;
51248;SDS011;39642;47.556;18.728;2023-01-15T16:39:39;16.27;;;7.40;;
51248;SDS011;39642;47.556;18.728;2023-01-15T16:42:58;14.57;;;6.95;;
51248;SDS011;39642;47.556;18.728;2023-01-15T16:45:01;15.07;;;6.55;;
51248;SDS011;39642;47.556;18.728;2023-01-15T16:47:38;14.82;;;7.00;;
51248;SDS011;39642;47.556;18.728;2023-01-15T16:50:25;15.98;;;7.85;;
51248;SDS011;39642;47.556;18.728;2023-01-15T16:52:52;15.93;;;7.65;;
51248;SDS011;39642;47.556;18.728;2023-01-15T17:00:41;15.75;;;7.05;;
51248;SDS011;39642;47.556;18.728;2023-01-15T17:03:21;14.93;;;6.97;;
51248;SDS011;39642;47.556;18.728;2023-01-15T17:05:50;15.00;;;7.18;;
51248;SDS011;39642;47.556;18.728;2023-01-15T17:08:23;15.02;;;7.10;;
51248;SDS011;39642;47.556;18.728;2023-01-15T17:11:04;14.85;;;6.87;;
51248;SDS011;39642;47.556;18.728;2023-01-15T17:13:36;14.52;;;7.10;;
51248;SDS011;39642;47.556;18.728;2023-01-15T17:16:17;13.77;;;6.90;;
51248;SDS011;39642;47.556;18.728;2023-01-15T17:18:44;13.15;;;6.07;;
51248;SDS011;39642;47.556;18.728;2023-01-15T17:21:18;14.82;;;7.28;;